»·PEaware :: UAL1779 KDEN-KABQ

UAL1779 :: KDEN-KABQ

FLIGHT INFORMATION

Flight Status: Arrived
Operator:
United Airlines
More flights by this operator :: More flights under this callsign
Pilot: Justin S. (10202)
Aircraft: AIRBUS A320
(A320)
More flights by this aircraft type
Origin: KDEN Denver Intl
United States
Destination: KABQ Albuquerque Intl Sunport
United States
More flights between these airports :: More routes between these airports
Route: +SPAZZ3 ZAPAA DATME SNDIA3
File this flight plan on PilotEdge
Remarks:
Altitude:
(Current/Filed)
34,000ft
Speed:
(Current/Filed)
367kts
Departed: 13-Jan-18 11:04 AM
Arrived: 13-Jan-18 12:01 PM
Distance/Time
Traveled:
303nm/0:57
Distance/Time
To Go:
Arrived

Flight Plot

Page will automatically refresh every two minutes.


Map Options




Map Legend


Flown Route
Filed Route
Departure Airport
Arrival Airport
Navaid (VOR, NDB)
Fix

Horizontal Profiles

Position Reports

Time Latitude Longitude Heading Altitude Ground
Speed
13-Jan-18 09:32 39.862655 -104.677636 0 5445ft 0kts
13-Jan-18 09:33 39.862655 -104.677636 0 5445ft 0kts
13-Jan-18 09:34 39.862655 -104.677636 0 5445ft 0kts
13-Jan-18 09:35 39.862655 -104.677636 0 5445ft 0kts
13-Jan-18 09:36 39.862655 -104.677636 0 5445ft 0kts
13-Jan-18 09:37 39.862655 -104.677636 0 5445ft 0kts
13-Jan-18 09:38 39.862655 -104.677636 0 5445ft 0kts
13-Jan-18 09:39 39.862655 -104.677636 0 5445ft 0kts
13-Jan-18 09:40 39.862655 -104.677636 0 5445ft 0kts
13-Jan-18 09:41 39.862594 -104.675742 25 5445ft 0kts
13-Jan-18 09:42 39.862594 -104.675742 25 5445ft 0kts
13-Jan-18 09:43 39.862594 -104.675742 25 5445ft 0kts
13-Jan-18 09:44 39.862594 -104.675742 25 5445ft 0kts
13-Jan-18 09:45 39.862594 -104.675742 25 5445ft 0kts
13-Jan-18 09:46 39.862594 -104.675742 25 5445ft 0kts
13-Jan-18 09:47 39.862594 -104.675742 25 5445ft 0kts
13-Jan-18 09:48 39.862594 -104.675742 25 5445ft 0kts
13-Jan-18 09:49 39.862594 -104.675742 25 5445ft 0kts
13-Jan-18 09:50 39.862594 -104.675742 25 5445ft 0kts
13-Jan-18 09:51 39.862594 -104.675742 25 5445ft 0kts
13-Jan-18 09:52 39.862594 -104.675742 25 5445ft 0kts
13-Jan-18 09:53 39.862594 -104.675742 25 5445ft 0kts
13-Jan-18 09:54 39.862594 -104.675742 25 5445ft 0kts
13-Jan-18 09:55 39.862594 -104.675742 25 5445ft 0kts
13-Jan-18 09:56 39.862594 -104.675742 25 5445ft 0kts
13-Jan-18 09:57 39.862594 -104.675742 25 5445ft 0kts
13-Jan-18 09:58 39.862594 -104.675742 25 5445ft 0kts
13-Jan-18 09:59 39.862594 -104.675742 25 5445ft 0kts
13-Jan-18 10:00 39.862594 -104.675742 25 5445ft 0kts
13-Jan-18 10:01 39.862594 -104.675742 25 5445ft 0kts
13-Jan-18 10:02 39.862594 -104.675742 25 5445ft 0kts
13-Jan-18 10:03 39.862594 -104.675742 25 5445ft 0kts
13-Jan-18 10:04 39.862594 -104.675742 25 5445ft 0kts
13-Jan-18 10:05 39.862594 -104.675742 25 5445ft 0kts
13-Jan-18 10:06 39.862594 -104.675742 25 5445ft 0kts
13-Jan-18 10:07 39.862594 -104.675742 25 5445ft 0kts
13-Jan-18 10:08 39.862594 -104.675742 25 5445ft 0kts
13-Jan-18 10:09 39.862594 -104.675742 25 5445ft 0kts
13-Jan-18 10:10 39.862594 -104.675742 25 5445ft 0kts
13-Jan-18 10:11 39.862594 -104.675742 25 5445ft 0kts
13-Jan-18 10:12 39.862594 -104.675742 25 5445ft 0kts
13-Jan-18 10:13 39.862594 -104.675742 25 5445ft 0kts
13-Jan-18 10:14 39.862594 -104.675742 25 5445ft 0kts
13-Jan-18 10:15 39.862594 -104.675742 25 5445ft 0kts
13-Jan-18 10:16 39.862594 -104.675742 25 5445ft 0kts
13-Jan-18 10:17 39.862594 -104.675742 25 5445ft 0kts
13-Jan-18 10:18 39.862067 -104.675793 318 5445ft 2kts
13-Jan-18 10:19 39.861972 -104.675469 269 5445ft 0kts
13-Jan-18 10:20 39.861972 -104.675470 269 5445ft 0kts
13-Jan-18 10:21 39.861972 -104.675471 269 5445ft 0kts
13-Jan-18 10:22 39.861972 -104.675472 269 5445ft 0kts
13-Jan-18 10:23 39.861972 -104.675473 269 5445ft 0kts
13-Jan-18 10:24 39.861972 -104.675474 269 5445ft 0kts
13-Jan-18 10:25 39.861972 -104.675475 269 5445ft 0kts
13-Jan-18 10:26 39.861972 -104.675476 269 5445ft 0kts
13-Jan-18 10:27 39.861972 -104.675478 269 5445ft 0kts
13-Jan-18 10:28 39.861972 -104.675523 269 5445ft 2kts
13-Jan-18 10:29 39.861411 -104.678319 271 5445ft 10kts
13-Jan-18 10:30 39.861437 -104.682367 271 5445ft 15kts
13-Jan-18 10:31 39.857316 -104.683963 180 5445ft 16kts
13-Jan-18 10:32 39.851436 -104.684043 180 5445ft 17kts
13-Jan-18 10:33 39.848066 -104.684089 181 5445ft 15kts
13-Jan-18 10:34 39.845092 -104.684104 179 5445ft 14kts
13-Jan-18 10:35 39.842846 -104.684150 181 5445ft 8kts
13-Jan-18 10:36 39.841896 -104.684174 181 5445ft 0kts
13-Jan-18 10:37 39.841895 -104.684174 181 5445ft 0kts
13-Jan-18 10:38 39.841895 -104.684174 181 5445ft 0kts
13-Jan-18 10:39 39.841894 -104.684174 181 5445ft 0kts
13-Jan-18 10:48 39.862597 -104.675740 25 5445ft 0kts
13-Jan-18 10:49 39.862597 -104.675740 25 5445ft 0kts
13-Jan-18 10:50 39.862597 -104.675740 25 5445ft 0kts
13-Jan-18 10:51 39.862597 -104.675740 25 5445ft 0kts
13-Jan-18 10:52 39.862597 -104.675740 25 5445ft 0kts
13-Jan-18 10:53 39.862597 -104.675740 25 5445ft 0kts
13-Jan-18 10:54 39.862597 -104.675740 25 5445ft 0kts
13-Jan-18 10:55 39.862506 -104.675797 20 5445ft 2kts
13-Jan-18 10:56 39.861976 -104.675639 275 5445ft 2kts
13-Jan-18 10:57 39.861972 -104.675469 269 5445ft 0kts
13-Jan-18 10:58 39.861972 -104.675470 269 5445ft 0kts
13-Jan-18 10:59 39.861972 -104.675471 269 5445ft 0kts
13-Jan-18 11:00 39.861972 -104.675472 269 5445ft 0kts
13-Jan-18 11:01 39.861398 -104.677770 271 5445ft 10kts
13-Jan-18 11:02 39.861375 -104.683656 239 5445ft 14kts
13-Jan-18 11:03 39.855320 -104.683979 179 5445ft 29kts
13-Jan-18 11:04 39.846398 -104.684096 180 5445ft 28kts
13-Jan-18 11:05 39.842187 -104.684152 180 5445ft 8kts
13-Jan-18 11:06 39.841850 -104.684159 182 5445ft 0kts
13-Jan-18 11:07 39.841849 -104.684159 182 5445ft 0kts
13-Jan-18 11:08 39.841801 -104.684161 181 5445ft 0kts
13-Jan-18 11:09 39.840657 -104.684812 273 5445ft 0kts
13-Jan-18 11:10 39.840609 -104.688776 267 5445ft 77kts
13-Jan-18 11:11 39.840044 -104.741728 266 6995ft 165kts
13-Jan-18 11:12 39.826530 -104.811556 251 8400ft 238kts
13-Jan-18 11:13 39.793184 -104.895987 228 10456ft 290kts
13-Jan-18 11:14 39.709214 -104.927183 175 12572ft 349kts
13-Jan-18 11:15 39.608359 -104.894145 155 14146ft 401kts
13-Jan-18 11:16 39.507795 -104.823660 153 16253ft 422kts
13-Jan-18 11:17 39.396166 -104.765392 163 18147ft 441kts
13-Jan-18 11:18 39.273767 -104.750872 182 19995ft 450kts
13-Jan-18 11:19 39.146639 -104.743144 181 21742ft 466kts
13-Jan-18 11:20 39.017494 -104.752403 209 23291ft 458kts
13-Jan-18 11:21 38.902750 -104.825258 213 24742ft 467kts
13-Jan-18 11:22 38.783838 -104.898041 213 26135ft 477kts
13-Jan-18 11:23 38.665994 -104.977517 216 27402ft 483kts
13-Jan-18 11:24 38.546808 -105.059886 215 28650ft 492kts
13-Jan-18 11:25 38.425215 -105.143701 215 29835ft 498kts
13-Jan-18 11:26 38.304266 -105.226620 215 31420ft 492kts
13-Jan-18 11:27 38.184011 -105.308833 215 32343ft 488kts
13-Jan-18 11:28 38.064581 -105.390240 215 32361ft 487kts
13-Jan-18 11:29 37.945877 -105.470751 215 32384ft 484kts
13-Jan-18 11:30 37.826919 -105.551200 215 32405ft 484kts
13-Jan-18 11:31 37.707425 -105.629186 208 32448ft 489kts
13-Jan-18 11:32 37.579211 -105.689618 206 32461ft 491kts
13-Jan-18 11:33 37.451596 -105.750068 206 32469ft 491kts
13-Jan-18 11:34 37.323759 -105.809835 207 32485ft 491kts
13-Jan-18 11:35 37.199972 -105.867539 207 32450ft 450kts
13-Jan-18 11:36 37.083949 -105.921852 207 32458ft 445kts
13-Jan-18 11:37 36.967642 -105.975811 207 32467ft 444kts
13-Jan-18 11:38 36.852249 -106.029148 206 32009ft 440kts
13-Jan-18 11:39 36.737193 -106.082242 206 31220ft 442kts
13-Jan-18 11:40 36.620538 -106.135699 205 30412ft 456kts
13-Jan-18 11:41 36.502410 -106.187732 205 29303ft 435kts
13-Jan-18 11:42 36.383267 -106.196789 174 28487ft 439kts
13-Jan-18 11:43 36.259431 -106.173122 173 28488ft 472kts
13-Jan-18 11:44 36.125892 -106.147870 173 28481ft 494kts
13-Jan-18 11:45 35.997145 -106.168569 222 27753ft 460kts
13-Jan-18 11:46 35.933624 -106.291478 264 26569ft 415kts
13-Jan-18 11:47 35.906955 -106.426466 243 25350ft 406kts
13-Jan-18 11:48 35.801443 -106.492447 201 23909ft 466kts
13-Jan-18 11:49 35.676419 -106.542968 203 22412ft 472kts
13-Jan-18 11:50 35.554439 -106.597108 207 20848ft 453kts
13-Jan-18 11:51 35.444678 -106.656554 208 19373ft 408kts
13-Jan-18 11:52 35.342259 -106.711656 208 17394ft 386kts
13-Jan-18 11:53 35.251709 -106.763082 211 15838ft 340kts
13-Jan-18 11:54 35.170495 -106.813946 219 13976ft 313kts
13-Jan-18 11:55 35.127050 -106.898804 248 12112ft 290kts
13-Jan-18 11:56 35.093596 -106.989061 247 9622ft 292kts
13-Jan-18 11:57 35.048084 -107.054699 180 8973ft 254kts
13-Jan-18 11:58 35.015549 -106.993260 62 8985ft 245kts
13-Jan-18 11:59 35.063419 -106.939691 38 9001ft 233kts
13-Jan-18 12:00 35.113838 -106.889784 38 9002ft 233kts
13-Jan-18 12:01 35.150663 -106.843350 78 8970ft 232kts
13-Jan-18 12:02 35.102269 -106.794617 187 7296ft 238kts
13-Jan-18 12:03 35.051565 -106.791646 128 7230ft 195kts
13-Jan-18 12:04 35.046226 -106.733093 94 6674ft 160kts
13-Jan-18 12:05 35.044752 -106.682762 91 6332ft 151kts
13-Jan-18 12:06 35.044450 -106.639820 90 5797ft 156kts
13-Jan-18 12:07 35.044717 -106.597390 61 5369ft 7kts
13-Jan-18 12:08 35.045599 -106.595323 64 5369ft 7kts
13-Jan-18 12:09 35.045840 -106.597346 270 5369ft 13kts
13-Jan-18 12:12 35.045757 -106.600932 271 5369ft 1kts
13-Jan-18 12:13 35.045785 -106.605358 271 5369ft 15kts
13-Jan-18 12:14 35.045778 -106.611692 272 5369ft 18kts
13-Jan-18 12:15 35.046920 -106.614414 2 5369ft 0kts
13-Jan-18 12:16 35.046921 -106.614414 2 5369ft 0kts
13-Jan-18 12:17 35.046921 -106.614414 2 5369ft 0kts
13-Jan-18 12:18 35.046921 -106.614414 2 5369ft 0kts
13-Jan-18 12:19 35.046921 -106.614414 2 5369ft 0kts
13-Jan-18 12:20 35.046921 -106.614414 2 5369ft 0kts
13-Jan-18 12:21 35.046921 -106.614414 2 5369ft 0kts

Navigation Log

Ident Type
Flight plan parsing failed, navigation log unavailable